sensor_id;sensor_type;location;lat;lon;timestamp;P1;durP1;ratioP1;P2;durP2;ratioP2
75941;SDS011;64622;46.220;19.878;2023-02-04T00:00:19;5.97;;;1.40;;
75941;SDS011;64622;46.220;19.878;2023-02-04T00:02:48;8.30;;;1.00;;
75941;SDS011;64622;46.220;19.878;2023-02-04T00:05:15;8.48;;;0.82;;
75941;SDS011;64622;46.220;19.878;2023-02-04T00:07:43;7.80;;;0.82;;
75941;SDS011;64622;46.220;19.878;2023-02-04T00:10:10;6.90;;;0.93;;
75941;SDS011;64622;46.220;19.878;2023-02-04T00:12:36;6.50;;;0.98;;
75941;SDS011;64622;46.220;19.878;2023-02-04T00:15:03;8.07;;;1.03;;
75941;SDS011;64622;46.220;19.878;2023-02-04T00:17:30;9.38;;;0.90;;
75941;SDS011;64622;46.220;19.878;2023-02-04T00:19:57;13.62;;;1.70;;
75941;SDS011;64622;46.220;19.878;2023-02-04T00:22:24;7.50;;;1.00;;
75941;SDS011;64622;46.220;19.878;2023-02-04T00:24:53;8.65;;;0.98;;
75941;SDS011;64622;46.220;19.878;2023-02-04T00:27:22;16.23;;;1.83;;
75941;SDS011;64622;46.220;19.878;2023-02-04T00:29:49;8.88;;;1.10;;
75941;SDS011;64622;46.220;19.878;2023-02-04T00:32:16;7.40;;;1.00;;
75941;SDS011;64622;46.220;19.878;2023-02-04T00:34:42;10.07;;;1.77;;
75941;SDS011;64622;46.220;19.878;2023-02-04T00:37:09;8.50;;;1.20;;
75941;SDS011;64622;46.220;19.878;2023-02-04T00:39:37;6.93;;;1.10;;
75941;SDS011;64622;46.220;19.878;2023-02-04T00:42:05;9.50;;;1.27;;
75941;SDS011;64622;46.220;19.878;2023-02-04T00:44:35;10.15;;;1.00;;
75941;SDS011;64622;46.220;19.878;2023-02-04T00:47:02;10.02;;;1.17;;
75941;SDS011;64622;46.220;19.878;2023-02-04T00:49:29;6.97;;;1.15;;
75941;SDS011;64622;46.220;19.878;2023-02-04T00:51:56;15.23;;;1.47;;
75941;SDS011;64622;46.220;19.878;2023-02-04T00:54:25;13.55;;;1.60;;
75941;SDS011;64622;46.220;19.878;2023-02-04T00:56:52;9.13;;;1.77;;
75941;SDS011;64622;46.220;19.878;2023-02-04T00:59:18;14.05;;;1.23;;
75941;SDS011;64622;46.220;19.878;2023-02-04T01:01:45;6.35;;;1.10;;
75941;SDS011;64622;46.220;19.878;2023-02-04T01:04:14;6.73;;;0.83;;
75941;SDS011;64622;46.220;19.878;2023-02-04T01:06:40;7.50;;;1.10;;
75941;SDS011;64622;46.220;19.878;2023-02-04T01:09:07;10.23;;;1.40;;
75941;SDS011;64622;46.220;19.878;2023-02-04T01:11:34;11.63;;;1.30;;
75941;SDS011;64622;46.220;19.878;2023-02-04T01:14:01;7.22;;;1.15;;
75941;SDS011;64622;46.220;19.878;2023-02-04T01:16:28;4.83;;;0.90;;
75941;SDS011;64622;46.220;19.878;2023-02-04T01:18:54;13.52;;;1.25;;
75941;SDS011;64622;46.220;19.878;2023-02-04T01:21:21;6.78;;;0.90;;
75941;SDS011;64622;46.220;19.878;2023-02-04T01:23:49;7.70;;;1.10;;
75941;SDS011;64622;46.220;19.878;2023-02-04T01:26:16;10.10;;;1.62;;
75941;SDS011;64622;46.220;19.878;2023-02-04T01:28:43;6.83;;;1.00;;
75941;SDS011;64622;46.220;19.878;2023-02-04T01:31:10;6.97;;;1.52;;
75941;SDS011;64622;46.220;19.878;2023-02-04T01:33:37;6.15;;;1.20;;
75941;SDS011;64622;46.220;19.878;2023-02-04T01:36:03;9.02;;;1.30;;
75941;SDS011;64622;46.220;19.878;2023-02-04T01:38:31;7.57;;;1.40;;
75941;SDS011;64622;46.220;19.878;2023-02-04T01:40:57;6.10;;;1.77;;
75941;SDS011;64622;46.220;19.878;2023-02-04T01:43:24;5.12;;;1.20;;
75941;SDS011;64622;46.220;19.878;2023-02-04T01:45:51;5.43;;;0.90;;
75941;SDS011;64622;46.220;19.878;2023-02-04T01:48:18;13.52;;;1.35;;
75941;SDS011;64622;46.220;19.878;2023-02-04T01:50:56;5.85;;;1.12;;
75941;SDS011;64622;46.220;19.878;2023-02-04T01:53:29;5.70;;;1.13;;
75941;SDS011;64622;46.220;19.878;2023-02-04T01:55:57;7.43;;;1.12;;
75941;SDS011;64622;46.220;19.878;2023-02-04T01:58:24;7.37;;;1.30;;
75941;SDS011;64622;46.220;19.878;2023-02-04T02:00:51;7.05;;;0.98;;
75941;SDS011;64622;46.220;19.878;2023-02-04T02:03:17;6.72;;;1.10;;
75941;SDS011;64622;46.220;19.878;2023-02-04T02:05:51;5.70;;;1.30;;
75941;SDS011;64622;46.220;19.878;2023-02-04T02:08:20;6.28;;;0.95;;
75941;SDS011;64622;46.220;19.878;2023-02-04T02:10:47;6.70;;;1.10;;
75941;SDS011;64622;46.220;19.878;2023-02-04T02:13:15;6.45;;;1.00;;
75941;SDS011;64622;46.220;19.878;2023-02-04T02:15:44;7.32;;;1.00;;
75941;SDS011;64622;46.220;19.878;2023-02-04T02:18:11;7.43;;;1.10;;
75941;SDS011;64622;46.220;19.878;2023-02-04T02:20:38;7.57;;;1.17;;
75941;SDS011;64622;46.220;19.878;2023-02-04T02:25:49;8.68;;;1.02;;
75941;SDS011;64622;46.220;19.878;2023-02-04T02:28:18;7.62;;;0.93;;
75941;SDS011;64622;46.220;19.878;2023-02-04T02:30:47;8.30;;;1.20;;
75941;SDS011;64622;46.220;19.878;2023-02-04T02:33:15;6.15;;;1.08;;
75941;SDS011;64622;46.220;19.878;2023-02-04T02:35:44;6.25;;;1.00;;
75941;SDS011;64622;46.220;19.878;2023-02-04T02:38:14;3.65;;;0.80;;
75941;SDS011;64622;46.220;19.878;2023-02-04T02:40:42;4.30;;;0.85;;
75941;SDS011;64622;46.220;19.878;2023-02-04T02:43:13;7.77;;;1.23;;
75941;SDS011;64622;46.220;19.878;2023-02-04T02:45:42;6.20;;;0.80;;
75941;SDS011;64622;46.220;19.878;2023-02-04T02:48:09;4.20;;;0.88;;
75941;SDS011;64622;46.220;19.878;2023-02-04T02:50:37;7.90;;;1.12;;
75941;SDS011;64622;46.220;19.878;2023-02-04T02:53:05;9.73;;;0.93;;
75941;SDS011;64622;46.220;19.878;2023-02-04T02:55:38;6.03;;;0.87;;
75941;SDS011;64622;46.220;19.878;2023-02-04T02:58:08;6.85;;;0.98;;
75941;SDS011;64622;46.220;19.878;2023-02-04T03:00:41;3.62;;;0.70;;
75941;SDS011;64622;46.220;19.878;2023-02-04T03:03:08;4.95;;;0.90;;
75941;SDS011;64622;46.220;19.878;2023-02-04T03:05:41;5.68;;;0.82;;
75941;SDS011;64622;46.220;19.878;2023-02-04T03:08:10;8.57;;;1.30;;
75941;SDS011;64622;46.220;19.878;2023-02-04T03:10:41;9.70;;;1.23;;
75941;SDS011;64622;46.220;19.878;2023-02-04T03:13:09;7.45;;;1.05;;
75941;SDS011;64622;46.220;19.878;2023-02-04T03:15:37;6.85;;;1.08;;
75941;SDS011;64622;46.220;19.878;2023-02-04T03:18:05;6.95;;;1.10;;
75941;SDS011;64622;46.220;19.878;2023-02-04T03:20:32;6.87;;;1.03;;
75941;SDS011;64622;46.220;19.878;2023-02-04T03:22:59;7.07;;;0.93;;
75941;SDS011;64622;46.220;19.878;2023-02-04T03:25:26;5.32;;;0.80;;
75941;SDS011;64622;46.220;19.878;2023-02-04T03:27:54;7.00;;;1.30;;
75941;SDS011;64622;46.220;19.878;2023-02-04T03:30:23;7.47;;;1.00;;
75941;SDS011;64622;46.220;19.878;2023-02-04T03:32:51;9.47;;;1.20;;
75941;SDS011;64622;46.220;19.878;2023-02-04T03:35:18;6.62;;;1.00;;
75941;SDS011;64622;46.220;19.878;2023-02-04T03:37:45;6.00;;;1.10;;
75941;SDS011;64622;46.220;19.878;2023-02-04T03:40:12;8.73;;;1.23;;
75941;SDS011;64622;46.220;19.878;2023-02-04T03:42:39;6.80;;;1.00;;
75941;SDS011;64622;46.220;19.878;2023-02-04T03:45:05;9.73;;;1.30;;
75941;SDS011;64622;46.220;19.878;2023-02-04T03:47:32;7.85;;;1.30;;
75941;SDS011;64622;46.220;19.878;2023-02-04T03:49:59;10.93;;;1.77;;
75941;SDS011;64622;46.220;19.878;2023-02-04T03:52:25;8.93;;;1.35;;
75941;SDS011;64622;46.220;19.878;2023-02-04T03:54:52;10.00;;;1.30;;
75941;SDS011;64622;46.220;19.878;2023-02-04T03:57:18;9.00;;;1.27;;
75941;SDS011;64622;46.220;19.878;2023-02-04T03:59:45;7.47;;;1.20;;
75941;SDS011;64622;46.220;19.878;2023-02-04T04:02:12;7.40;;;1.23;;
75941;SDS011;64622;46.220;19.878;2023-02-04T04:04:39;11.10;;;1.20;;
75941;SDS011;64622;46.220;19.878;2023-02-04T04:07:05;6.82;;;0.90;;
75941;SDS011;64622;46.220;19.878;2023-02-04T04:09:32;7.47;;;1.20;;
75941;SDS011;64622;46.220;19.878;2023-02-04T04:11:59;10.98;;;1.30;;
75941;SDS011;64622;46.220;19.878;2023-02-04T04:14:25;7.07;;;1.15;;
75941;SDS011;64622;46.220;19.878;2023-02-04T04:16:52;6.10;;;1.20;;
75941;SDS011;64622;46.220;19.878;2023-02-04T04:19:19;13.77;;;2.37;;
75941;SDS011;64622;46.220;19.878;2023-02-04T04:21:46;6.10;;;0.87;;
75941;SDS011;64622;46.220;19.878;2023-02-04T04:24:12;5.45;;;0.90;;
75941;SDS011;64622;46.220;19.878;2023-02-04T04:26:39;8.52;;;1.10;;
75941;SDS011;64622;46.220;19.878;2023-02-04T04:29:05;8.65;;;2.50;;
75941;SDS011;64622;46.220;19.878;2023-02-04T04:31:32;8.55;;;0.93;;
75941;SDS011;64622;46.220;19.878;2023-02-04T04:33:58;7.13;;;1.30;;
75941;SDS011;64622;46.220;19.878;2023-02-04T04:36:26;9.48;;;1.60;;
75941;SDS011;64622;46.220;19.878;2023-02-04T04:38:53;7.70;;;1.30;;
75941;SDS011;64622;46.220;19.878;2023-02-04T04:41:19;9.45;;;0.90;;
75941;SDS011;64622;46.220;19.878;2023-02-04T04:43:46;8.57;;;1.10;;
75941;SDS011;64622;46.220;19.878;2023-02-04T04:46:12;5.97;;;0.87;;
75941;SDS011;64622;46.220;19.878;2023-02-04T04:48:39;12.85;;;1.20;;
75941;SDS011;64622;46.220;19.878;2023-02-04T04:51:06;11.25;;;0.95;;
75941;SDS011;64622;46.220;19.878;2023-02-04T04:53:32;8.82;;;1.08;;
75941;SDS011;64622;46.220;19.878;2023-02-04T04:55:59;10.25;;;1.12;;
75941;SDS011;64622;46.220;19.878;2023-02-04T04:58:26;4.23;;;0.83;;
75941;SDS011;64622;46.220;19.878;2023-02-04T05:00:52;7.78;;;0.98;;
75941;SDS011;64622;46.220;19.878;2023-02-04T05:03:19;8.93;;;1.50;;
75941;SDS011;64622;46.220;19.878;2023-02-04T05:05:45;6.68;;;0.80;;
75941;SDS011;64622;46.220;19.878;2023-02-04T05:08:11;13.18;;;1.33;;
75941;SDS011;64622;46.220;19.878;2023-02-04T05:10:42;9.37;;;1.33;;
75941;SDS011;64622;46.220;19.878;2023-02-04T05:13:09;8.05;;;1.25;;
75941;SDS011;64622;46.220;19.878;2023-02-04T05:15:35;3.97;;;0.80;;
75941;SDS011;64622;46.220;19.878;2023-02-04T05:18:02;6.80;;;1.08;;
75941;SDS011;64622;46.220;19.878;2023-02-04T05:20:29;5.53;;;1.20;;
75941;SDS011;64622;46.220;19.878;2023-02-04T05:22:55;5.80;;;1.00;;
75941;SDS011;64622;46.220;19.878;2023-02-04T05:25:22;7.68;;;0.85;;
75941;SDS011;64622;46.220;19.878;2023-02-04T05:27:48;7.45;;;0.90;;
75941;SDS011;64622;46.220;19.878;2023-02-04T05:30:15;6.60;;;0.90;;
75941;SDS011;64622;46.220;19.878;2023-02-04T05:32:42;7.57;;;1.02;;
75941;SDS011;64622;46.220;19.878;2023-02-04T05:35:08;3.20;;;0.63;;
75941;SDS011;64622;46.220;19.878;2023-02-04T05:37:35;6.57;;;1.10;;
75941;SDS011;64622;46.220;19.878;2023-02-04T05:40:02;6.20;;;0.77;;
75941;SDS011;64622;46.220;19.878;2023-02-04T05:42:29;4.45;;;0.90;;
75941;SDS011;64622;46.220;19.878;2023-02-04T05:44:55;3.95;;;0.80;;
75941;SDS011;64622;46.220;19.878;2023-02-04T05:47:22;5.63;;;0.73;;
75941;SDS011;64622;46.220;19.878;2023-02-04T05:49:49;6.32;;;0.75;;
75941;SDS011;64622;46.220;19.878;2023-02-04T05:52:15;5.85;;;1.10;;
75941;SDS011;64622;46.220;19.878;2023-02-04T05:54:42;6.32;;;1.80;;
75941;SDS011;64622;46.220;19.878;2023-02-04T05:57:08;5.62;;;0.85;;
75941;SDS011;64622;46.220;19.878;2023-02-04T05:59:35;7.73;;;1.00;;
75941;SDS011;64622;46.220;19.878;2023-02-04T06:02:01;5.57;;;0.95;;
75941;SDS011;64622;46.220;19.878;2023-02-04T06:04:28;7.53;;;0.90;;
75941;SDS011;64622;46.220;19.878;2023-02-04T06:06:54;7.85;;;1.20;;
75941;SDS011;64622;46.220;19.878;2023-02-04T06:09:21;6.80;;;0.98;;
75941;SDS011;64622;46.220;19.878;2023-02-04T06:11:48;6.33;;;0.93;;
75941;SDS011;64622;46.220;19.878;2023-02-04T06:14:14;10.40;;;0.80;;
75941;SDS011;64622;46.220;19.878;2023-02-04T06:16:41;9.70;;;1.60;;
75941;SDS011;64622;46.220;19.878;2023-02-04T06:19:08;4.65;;;1.08;;
75941;SDS011;64622;46.220;19.878;2023-02-04T06:21:34;4.65;;;0.73;;
75941;SDS011;64622;46.220;19.878;2023-02-04T06:24:00;9.25;;;1.17;;
75941;SDS011;64622;46.220;19.878;2023-02-04T06:26:27;6.07;;;1.10;;
75941;SDS011;64622;46.220;19.878;2023-02-04T06:28:54;6.30;;;1.25;;
75941;SDS011;64622;46.220;19.878;2023-02-04T06:31:20;8.10;;;2.15;;
75941;SDS011;64622;46.220;19.878;2023-02-04T06:33:47;8.88;;;1.33;;
75941;SDS011;64622;46.220;19.878;2023-02-04T06:36:13;9.10;;;1.45;;
75941;SDS011;64622;46.220;19.878;2023-02-04T06:38:40;7.65;;;1.48;;
75941;SDS011;64622;46.220;19.878;2023-02-04T06:41:07;8.52;;;1.90;;
75941;SDS011;64622;46.220;19.878;2023-02-04T06:43:33;7.47;;;1.80;;
75941;SDS011;64622;46.220;19.878;2023-02-04T06:46:00;5.00;;;1.08;;
75941;SDS011;64622;46.220;19.878;2023-02-04T06:48:27;7.37;;;1.87;;
75941;SDS011;64622;46.220;19.878;2023-02-04T06:50:53;8.13;;;1.25;;
75941;SDS011;64622;46.220;19.878;2023-02-04T06:53:20;8.10;;;1.20;;
75941;SDS011;64622;46.220;19.878;2023-02-04T06:55:47;6.20;;;0.82;;
75941;SDS011;64622;46.220;19.878;2023-02-04T06:58:13;8.55;;;1.20;;
75941;SDS011;64622;46.220;19.878;2023-02-04T07:00:40;6.20;;;0.80;;
75941;SDS011;64622;46.220;19.878;2023-02-04T07:03:07;7.05;;;0.90;;
75941;SDS011;64622;46.220;19.878;2023-02-04T07:05:34;5.95;;;1.17;;
75941;SDS011;64622;46.220;19.878;2023-02-04T07:08:00;5.40;;;1.30;;
75941;SDS011;64622;46.220;19.878;2023-02-04T07:10:28;5.87;;;0.98;;
75941;SDS011;64622;46.220;19.878;2023-02-04T07:12:54;12.27;;;2.70;;
75941;SDS011;64622;46.220;19.878;2023-02-04T07:15:21;16.02;;;4.37;;
75941;SDS011;64622;46.220;19.878;2023-02-04T07:17:48;9.70;;;2.60;;
75941;SDS011;64622;46.220;19.878;2023-02-04T07:20:15;5.65;;;1.37;;
75941;SDS011;64622;46.220;19.878;2023-02-04T07:22:41;6.15;;;1.25;;
75941;SDS011;64622;46.220;19.878;2023-02-04T07:25:08;4.40;;;1.03;;
75941;SDS011;64622;46.220;19.878;2023-02-04T07:27:37;5.28;;;1.00;;
75941;SDS011;64622;46.220;19.878;2023-02-04T07:30:04;4.62;;;0.70;;
75941;SDS011;64622;46.220;19.878;2023-02-04T07:32:32;3.22;;;0.60;;
75941;SDS011;64622;46.220;19.878;2023-02-04T07:34:59;4.32;;;0.52;;
75941;SDS011;64622;46.220;19.878;2023-02-04T07:37:25;3.57;;;0.60;;
75941;SDS011;64622;46.220;19.878;2023-02-04T07:39:52;3.25;;;0.50;;
75941;SDS011;64622;46.220;19.878;2023-02-04T07:42:19;5.10;;;0.95;;
75941;SDS011;64622;46.220;19.878;2023-02-04T07:44:49;4.95;;;0.60;;
75941;SDS011;64622;46.220;19.878;2023-02-04T07:47:16;3.58;;;0.55;;
75941;SDS011;64622;46.220;19.878;2023-02-04T07:49:43;3.63;;;0.57;;
75941;SDS011;64622;46.220;19.878;2023-02-04T07:52:09;3.50;;;0.57;;
75941;SDS011;64622;46.220;19.878;2023-02-04T07:54:36;4.78;;;0.62;;
75941;SDS011;64622;46.220;19.878;2023-02-04T07:57:03;2.47;;;0.60;;
75941;SDS011;64622;46.220;19.878;2023-02-04T07:59:30;4.18;;;0.70;;
75941;SDS011;64622;46.220;19.878;2023-02-04T08:01:56;2.90;;;0.53;;
75941;SDS011;64622;46.220;19.878;2023-02-04T08:04:23;5.22;;;0.65;;
75941;SDS011;64622;46.220;19.878;2023-02-04T08:06:50;3.87;;;0.62;;
75941;SDS011;64622;46.220;19.878;2023-02-04T08:09:16;5.05;;;0.90;;
75941;SDS011;64622;46.220;19.878;2023-02-04T08:11:43;3.40;;;0.60;;
75941;SDS011;64622;46.220;19.878;2023-02-04T08:14:09;3.77;;;0.80;;
75941;SDS011;64622;46.220;19.878;2023-02-04T08:16:36;3.60;;;0.80;;
75941;SDS011;64622;46.220;19.878;2023-02-04T08:19:03;2.95;;;0.60;;
75941;SDS011;64622;46.220;19.878;2023-02-04T08:21:29;4.50;;;1.10;;
75941;SDS011;64622;46.220;19.878;2023-02-04T08:23:56;3.35;;;0.70;;
75941;SDS011;64622;46.220;19.878;2023-02-04T08:26:23;6.00;;;0.90;;
75941;SDS011;64622;46.220;19.878;2023-02-04T08:28:49;2.70;;;0.70;;
75941;SDS011;64622;46.220;19.878;2023-02-04T08:31:15;4.40;;;0.88;;
75941;SDS011;64622;46.220;19.878;2023-02-04T08:33:42;3.30;;;0.70;;
75941;SDS011;64622;46.220;19.878;2023-02-04T08:36:09;4.28;;;0.73;;
75941;SDS011;64622;46.220;19.878;2023-02-04T08:38:35;3.20;;;0.80;;
75941;SDS011;64622;46.220;19.878;2023-02-04T08:41:02;3.92;;;0.60;;
75941;SDS011;64622;46.220;19.878;2023-02-04T08:43:29;2.75;;;0.60;;
75941;SDS011;64622;46.220;19.878;2023-02-04T08:45:56;3.55;;;0.60;;
75941;SDS011;64622;46.220;19.878;2023-02-04T08:48:23;4.37;;;0.88;;
75941;SDS011;64622;46.220;19.878;2023-02-04T08:50:49;4.43;;;0.80;;
75941;SDS011;64622;46.220;19.878;2023-02-04T08:53:16;5.53;;;0.98;;
75941;SDS011;64622;46.220;19.878;2023-02-04T08:55:42;8.52;;;2.33;;
75941;SDS011;64622;46.220;19.878;2023-02-04T08:58:09;7.80;;;1.30;;
75941;SDS011;64622;46.220;19.878;2023-02-04T09:00:36;5.12;;;1.00;;
75941;SDS011;64622;46.220;19.878;2023-02-04T09:03:03;5.50;;;0.90;;
75941;SDS011;64622;46.220;19.878;2023-02-04T09:05:29;4.97;;;0.80;;
75941;SDS011;64622;46.220;19.878;2023-02-04T09:07:56;6.72;;;1.42;;
75941;SDS011;64622;46.220;19.878;2023-02-04T09:10:22;5.97;;;1.60;;
75941;SDS011;64622;46.220;19.878;2023-02-04T09:12:49;7.75;;;1.98;;
75941;SDS011;64622;46.220;19.878;2023-02-04T09:15:24;5.30;;;1.60;;
75941;SDS011;64622;46.220;19.878;2023-02-04T09:17:51;6.65;;;2.47;;
75941;SDS011;64622;46.220;19.878;2023-02-04T09:20:29;6.87;;;2.25;;
75941;SDS011;64622;46.220;19.878;2023-02-04T09:22:56;8.23;;;2.58;;
75941;SDS011;64622;46.220;19.878;2023-02-04T09:25:22;8.48;;;2.53;;
75941;SDS011;64622;46.220;19.878;2023-02-04T09:27:49;9.10;;;2.57;;
75941;SDS011;64622;46.220;19.878;2023-02-04T09:30:16;7.18;;;2.75;;
75941;SDS011;64622;46.220;19.878;2023-02-04T09:32:43;8.13;;;3.20;;
75941;SDS011;64622;46.220;19.878;2023-02-04T09:35:10;8.15;;;3.22;;
75941;SDS011;64622;46.220;19.878;2023-02-04T09:37:37;10.13;;;3.28;;
75941;SDS011;64622;46.220;19.878;2023-02-04T09:40:04;12.30;;;3.20;;
75941;SDS011;64622;46.220;19.878;2023-02-04T09:42:31;7.65;;;2.92;;
75941;SDS011;64622;46.220;19.878;2023-02-04T09:44:58;8.18;;;3.37;;
75941;SDS011;64622;46.220;19.878;2023-02-04T09:47:28;10.65;;;3.92;;
75941;SDS011;64622;46.220;19.878;2023-02-04T09:49:56;8.25;;;3.58;;
75941;SDS011;64622;46.220;19.878;2023-02-04T09:52:23;8.43;;;3.97;;
75941;SDS011;64622;46.220;19.878;2023-02-04T09:54:52;8.85;;;3.85;;
75941;SDS011;64622;46.220;19.878;2023-02-04T09:57:19;8.55;;;3.62;;
75941;SDS011;64622;46.220;19.878;2023-02-04T09:59:46;9.23;;;3.87;;
75941;SDS011;64622;46.220;19.878;2023-02-04T10:02:17;10.07;;;3.92;;
75941;SDS011;64622;46.220;19.878;2023-02-04T10:04:48;12.13;;;3.83;;
75941;SDS011;64622;46.220;19.878;2023-02-04T10:07:16;9.23;;;4.00;;
75941;SDS011;64622;46.220;19.878;2023-02-04T10:09:47;8.93;;;3.85;;
75941;SDS011;64622;46.220;19.878;2023-02-04T10:12:15;8.60;;;3.78;;
75941;SDS011;64622;46.220;19.878;2023-02-04T10:14:42;10.30;;;4.85;;
75941;SDS011;64622;46.220;19.878;2023-02-04T10:17:09;9.63;;;4.70;;
75941;SDS011;64622;46.220;19.878;2023-02-04T10:19:37;11.23;;;3.92;;
75941;SDS011;64622;46.220;19.878;2023-02-04T10:22:09;10.70;;;4.43;;
75941;SDS011;64622;46.220;19.878;2023-02-04T10:24:42;7.85;;;3.20;;
75941;SDS011;64622;46.220;19.878;2023-02-04T10:27:10;8.85;;;3.20;;
75941;SDS011;64622;46.220;19.878;2023-02-04T10:29:37;9.10;;;3.80;;
75941;SDS011;64622;46.220;19.878;2023-02-04T10:32:23;9.27;;;4.40;;
75941;SDS011;64622;46.220;19.878;2023-02-04T10:34:55;9.30;;;3.25;;
75941;SDS011;64622;46.220;19.878;2023-02-04T10:37:24;7.05;;;2.92;;
75941;SDS011;64622;46.220;19.878;2023-02-04T10:39:51;8.48;;;3.42;;
75941;SDS011;64622;46.220;19.878;2023-02-04T10:42:27;11.70;;;4.03;;
75941;SDS011;64622;46.220;19.878;2023-02-04T10:44:55;8.02;;;3.10;;
75941;SDS011;64622;46.220;19.878;2023-02-04T10:47:26;7.18;;;2.70;;
75941;SDS011;64622;46.220;19.878;2023-02-04T10:50:00;7.53;;;2.55;;
75941;SDS011;64622;46.220;19.878;2023-02-04T10:52:34;7.85;;;3.35;;
75941;SDS011;64622;46.220;19.878;2023-02-04T10:55:06;7.40;;;2.87;;
75941;SDS011;64622;46.220;19.878;2023-02-04T10:57:38;16.85;;;10.05;;
75941;SDS011;64622;46.220;19.878;2023-02-04T11:00:19;8.73;;;3.58;;
75941;SDS011;64622;46.220;19.878;2023-02-04T11:05:28;7.55;;;3.05;;
75941;SDS011;64622;46.220;19.878;2023-02-04T11:07:56;9.00;;;3.73;;
75941;SDS011;64622;46.220;19.878;2023-02-04T11:10:24;8.40;;;3.35;;
75941;SDS011;64622;46.220;19.878;2023-02-04T11:18:49;9.10;;;4.18;;
75941;SDS011;64622;46.220;19.878;2023-02-04T11:26:42;7.53;;;2.37;;
75941;SDS011;64622;46.220;19.878;2023-02-04T11:32:02;11.55;;;5.45;;
75941;SDS011;64622;46.220;19.878;2023-02-04T11:34:42;7.43;;;3.27;;
75941;SDS011;64622;46.220;19.878;2023-02-04T11:37:15;8.63;;;3.10;;
75941;SDS011;64622;46.220;19.878;2023-02-04T11:40:00;7.70;;;2.35;;
75941;SDS011;64622;46.220;19.878;2023-02-04T11:42:45;7.55;;;2.60;;
75941;SDS011;64622;46.220;19.878;2023-02-04T11:47:42;7.13;;;2.30;;
75941;SDS011;64622;46.220;19.878;2023-02-04T11:50:16;8.70;;;2.60;;
75941;SDS011;64622;46.220;19.878;2023-02-04T11:52:47;7.70;;;2.05;;
75941;SDS011;64622;46.220;19.878;2023-02-04T11:55:14;7.60;;;2.58;;
75941;SDS011;64622;46.220;19.878;2023-02-04T11:57:41;17.37;;;7.78;;
75941;SDS011;64622;46.220;19.878;2023-02-04T12:00:14;7.67;;;3.20;;
75941;SDS011;64622;46.220;19.878;2023-02-04T12:02:44;8.38;;;3.05;;
75941;SDS011;64622;46.220;19.878;2023-02-04T12:05:17;7.95;;;2.17;;
75941;SDS011;64622;46.220;19.878;2023-02-04T12:07:45;6.65;;;2.05;;
75941;SDS011;64622;46.220;19.878;2023-02-04T12:10:21;7.95;;;2.75;;
75941;SDS011;64622;46.220;19.878;2023-02-04T12:12:52;11.97;;;5.00;;
75941;SDS011;64622;46.220;19.878;2023-02-04T12:15:23;8.18;;;3.28;;
75941;SDS011;64622;46.220;19.878;2023-02-04T12:17:59;11.45;;;5.25;;
75941;SDS011;64622;46.220;19.878;2023-02-04T12:20:38;10.27;;;4.72;;
75941;SDS011;64622;46.220;19.878;2023-02-04T12:23:05;8.02;;;2.90;;
75941;SDS011;64622;46.220;19.878;2023-02-04T12:25:31;9.00;;;4.10;;
75941;SDS011;64622;46.220;19.878;2023-02-04T12:27:58;9.23;;;3.28;;
75941;SDS011;64622;46.220;19.878;2023-02-04T12:30:25;11.12;;;3.97;;
75941;SDS011;64622;46.220;19.878;2023-02-04T12:32:52;10.38;;;3.97;;
75941;SDS011;64622;46.220;19.878;2023-02-04T12:35:19;15.82;;;6.57;;
75941;SDS011;64622;46.220;19.878;2023-02-04T12:37:46;9.93;;;4.33;;
75941;SDS011;64622;46.220;19.878;2023-02-04T12:40:16;13.38;;;5.18;;
75941;SDS011;64622;46.220;19.878;2023-02-04T12:42:44;15.13;;;6.70;;
75941;SDS011;64622;46.220;19.878;2023-02-04T12:45:12;9.65;;;3.47;;
75941;SDS011;64622;46.220;19.878;2023-02-04T12:47:40;7.55;;;3.10;;
75941;SDS011;64622;46.220;19.878;2023-02-04T12:50:07;7.83;;;3.63;;
75941;SDS011;64622;46.220;19.878;2023-02-04T12:52:35;7.03;;;2.87;;
75941;SDS011;64622;46.220;19.878;2023-02-04T12:55:05;10.23;;;4.35;;
75941;SDS011;64622;46.220;19.878;2023-02-04T12:57:33;8.93;;;4.30;;
75941;SDS011;64622;46.220;19.878;2023-02-04T13:00:01;9.05;;;3.10;;
75941;SDS011;64622;46.220;19.878;2023-02-04T13:02:29;6.80;;;2.10;;
75941;SDS011;64622;46.220;19.878;2023-02-04T13:04:56;6.55;;;2.30;;
75941;SDS011;64622;46.220;19.878;2023-02-04T13:07:23;7.37;;;2.25;;
75941;SDS011;64622;46.220;19.878;2023-02-04T13:09:50;7.30;;;2.15;;
75941;SDS011;64622;46.220;19.878;2023-02-04T13:12:17;7.50;;;2.60;;
75941;SDS011;64622;46.220;19.878;2023-02-04T13:14:44;8.20;;;2.20;;
75941;SDS011;64622;46.220;19.878;2023-02-04T13:17:11;5.93;;;1.90;;
75941;SDS011;64622;46.220;19.878;2023-02-04T13:19:37;6.93;;;1.85;;
75941;SDS011;64622;46.220;19.878;2023-02-04T13:22:04;6.90;;;2.22;;
75941;SDS011;64622;46.220;19.878;2023-02-04T13:24:31;7.10;;;2.35;;
75941;SDS011;64622;46.220;19.878;2023-02-04T13:26:57;6.20;;;1.93;;
75941;SDS011;64622;46.220;19.878;2023-02-04T13:29:24;7.45;;;2.08;;
75941;SDS011;64622;46.220;19.878;2023-02-04T13:31:51;13.48;;;4.75;;
75941;SDS011;64622;46.220;19.878;2023-02-04T13:34:18;13.95;;;4.20;;
75941;SDS011;64622;46.220;19.878;2023-02-04T13:36:45;13.23;;;5.85;;
75941;SDS011;64622;46.220;19.878;2023-02-04T13:39:11;7.63;;;2.43;;
75941;SDS011;64622;46.220;19.878;2023-02-04T13:41:38;11.82;;;3.00;;
75941;SDS011;64622;46.220;19.878;2023-02-04T13:44:06;8.32;;;2.20;;
75941;SDS011;64622;46.220;19.878;2023-02-04T13:46:33;10.10;;;3.83;;
75941;SDS011;64622;46.220;19.878;2023-02-04T13:48:59;6.60;;;2.37;;
75941;SDS011;64622;46.220;19.878;2023-02-04T13:51:26;9.70;;;4.10;;
75941;SDS011;64622;46.220;19.878;2023-02-04T13:53:53;8.45;;;2.20;;
75941;SDS011;64622;46.220;19.878;2023-02-04T13:56:19;6.97;;;2.30;;
75941;SDS011;64622;46.220;19.878;2023-02-04T13:58:46;9.00;;;3.20;;
75941;SDS011;64622;46.220;19.878;2023-02-04T14:01:13;8.48;;;3.28;;
75941;SDS011;64622;46.220;19.878;2023-02-04T14:03:40;8.00;;;2.40;;
75941;SDS011;64622;46.220;19.878;2023-02-04T14:06:07;13.48;;;6.35;;
75941;SDS011;64622;46.220;19.878;2023-02-04T14:08:34;7.20;;;2.12;;
75941;SDS011;64622;46.220;19.878;2023-02-04T14:11:01;7.90;;;2.70;;
75941;SDS011;64622;46.220;19.878;2023-02-04T14:13:28;9.75;;;2.87;;
75941;SDS011;64622;46.220;19.878;2023-02-04T14:15:54;8.13;;;3.10;;
75941;SDS011;64622;46.220;19.878;2023-02-04T14:18:21;8.40;;;2.90;;
75941;SDS011;64622;46.220;19.878;2023-02-04T14:20:47;6.78;;;2.12;;
75941;SDS011;64622;46.220;19.878;2023-02-04T14:23:14;6.18;;;1.92;;
75941;SDS011;64622;46.220;19.878;2023-02-04T14:25:41;7.05;;;1.75;;
75941;SDS011;64622;46.220;19.878;2023-02-04T14:28:07;6.43;;;2.23;;
75941;SDS011;64622;46.220;19.878;2023-02-04T14:30:34;15.15;;;5.20;;
75941;SDS011;64622;46.220;19.878;2023-02-04T14:33:01;7.25;;;2.67;;
75941;SDS011;64622;46.220;19.878;2023-02-04T14:35:27;7.25;;;2.37;;
75941;SDS011;64622;46.220;19.878;2023-02-04T14:37:54;7.90;;;2.12;;
75941;SDS011;64622;46.220;19.878;2023-02-04T14:40:20;14.50;;;3.83;;
75941;SDS011;64622;46.220;19.878;2023-02-04T14:42:47;8.95;;;2.58;;
75941;SDS011;64622;46.220;19.878;2023-02-04T14:45:14;13.52;;;3.00;;
75941;SDS011;64622;46.220;19.878;2023-02-04T14:47:41;7.15;;;1.95;;
75941;SDS011;64622;46.220;19.878;2023-02-04T14:50:09;5.90;;;1.62;;
75941;SDS011;64622;46.220;19.878;2023-02-04T14:52:38;9.47;;;1.67;;
75941;SDS011;64622;46.220;19.878;2023-02-04T14:55:05;9.90;;;2.35;;
75941;SDS011;64622;46.220;19.878;2023-02-04T14:57:33;9.15;;;2.60;;